sensor_id;sensor_type;location;lat;lon;timestamp;P1;durP1;ratioP1;P2;durP2;ratioP2
57800;SDS011;43627;42.728;23.256;2023-09-19T00:02:21;5.97;;;3.20;;
57800;SDS011;43627;42.728;23.256;2023-09-19T00:04:47;6.85;;;3.50;;
57800;SDS011;43627;42.728;23.256;2023-09-19T00:07:15;6.47;;;2.90;;
57800;SDS011;43627;42.728;23.256;2023-09-19T00:09:42;5.72;;;3.03;;
57800;SDS011;43627;42.728;23.256;2023-09-19T00:12:10;6.55;;;3.10;;
57800;SDS011;43627;42.728;23.256;2023-09-19T00:14:39;5.40;;;3.38;;
57800;SDS011;43627;42.728;23.256;2023-09-19T00:17:06;4.68;;;3.10;;
57800;SDS011;43627;42.728;23.256;2023-09-19T00:19:35;5.53;;;3.28;;
57800;SDS011;43627;42.728;23.256;2023-09-19T00:22:02;6.50;;;3.45;;
57800;SDS011;43627;42.728;23.256;2023-09-19T00:24:29;3.85;;;2.55;;
57800;SDS011;43627;42.728;23.256;2023-09-19T00:26:56;6.63;;;3.33;;
57800;SDS011;43627;42.728;23.256;2023-09-19T00:29:25;9.63;;;3.25;;
57800;SDS011;43627;42.728;23.256;2023-09-19T00:31:55;6.80;;;3.10;;
57800;SDS011;43627;42.728;23.256;2023-09-19T00:34:23;5.75;;;3.40;;
57800;SDS011;43627;42.728;23.256;2023-09-19T00:36:50;6.50;;;3.60;;
57800;SDS011;43627;42.728;23.256;2023-09-19T00:39:19;7.25;;;3.05;;
57800;SDS011;43627;42.728;23.256;2023-09-19T00:41:46;4.97;;;3.15;;
57800;SDS011;43627;42.728;23.256;2023-09-19T00:44:13;5.68;;;2.90;;
57800;SDS011;43627;42.728;23.256;2023-09-19T00:46:45;5.15;;;3.17;;
57800;SDS011;43627;42.728;23.256;2023-09-19T00:49:15;5.13;;;3.50;;
57800;SDS011;43627;42.728;23.256;2023-09-19T00:51:42;3.72;;;2.95;;
57800;SDS011;43627;42.728;23.256;2023-09-19T00:54:13;5.93;;;3.10;;
57800;SDS011;43627;42.728;23.256;2023-09-19T00:56:45;4.63;;;3.17;;
57800;SDS011;43627;42.728;23.256;2023-09-19T00:59:12;7.35;;;3.50;;
57800;SDS011;43627;42.728;23.256;2023-09-19T01:01:38;7.72;;;3.90;;
57800;SDS011;43627;42.728;23.256;2023-09-19T01:04:06;6.82;;;3.53;;
57800;SDS011;43627;42.728;23.256;2023-09-19T01:06:33;7.13;;;3.90;;
57800;SDS011;43627;42.728;23.256;2023-09-19T01:09:00;6.82;;;3.92;;
57800;SDS011;43627;42.728;23.256;2023-09-19T01:11:33;8.25;;;3.95;;
57800;SDS011;43627;42.728;23.256;2023-09-19T01:17:09;4.72;;;3.40;;
57800;SDS011;43627;42.728;23.256;2023-09-19T01:25:26;4.97;;;3.45;;
57800;SDS011;43627;42.728;23.256;2023-09-19T01:31:31;7.13;;;3.75;;
57800;SDS011;43627;42.728;23.256;2023-09-19T01:34:02;5.85;;;4.03;;
57800;SDS011;43627;42.728;23.256;2023-09-19T01:36:35;7.10;;;3.60;;
57800;SDS011;43627;42.728;23.256;2023-09-19T01:39:04;6.72;;;4.22;;
57800;SDS011;43627;42.728;23.256;2023-09-19T01:44:40;7.53;;;4.00;;
57800;SDS011;43627;42.728;23.256;2023-09-19T01:47:30;6.53;;;3.70;;
57800;SDS011;43627;42.728;23.256;2023-09-19T01:52:59;5.57;;;4.07;;
57800;SDS011;43627;42.728;23.256;2023-09-19T01:55:33;6.07;;;3.58;;
57800;SDS011;43627;42.728;23.256;2023-09-19T01:58:27;6.57;;;4.13;;
57800;SDS011;43627;42.728;23.256;2023-09-19T02:01:00;6.47;;;4.63;;
57800;SDS011;43627;42.728;23.256;2023-09-19T02:03:28;5.47;;;4.03;;
57800;SDS011;43627;42.728;23.256;2023-09-19T02:05:55;6.20;;;4.18;;
57800;SDS011;43627;42.728;23.256;2023-09-19T02:08:22;6.57;;;4.72;;
57800;SDS011;43627;42.728;23.256;2023-09-19T02:10:52;6.88;;;5.10;;
57800;SDS011;43627;42.728;23.256;2023-09-19T02:13:19;8.73;;;4.53;;
57800;SDS011;43627;42.728;23.256;2023-09-19T02:15:48;6.10;;;4.47;;
57800;SDS011;43627;42.728;23.256;2023-09-19T02:18:15;8.65;;;4.38;;
57800;SDS011;43627;42.728;23.256;2023-09-19T02:20:43;6.75;;;4.55;;
57800;SDS011;43627;42.728;23.256;2023-09-19T02:23:10;5.82;;;4.55;;
57800;SDS011;43627;42.728;23.256;2023-09-19T02:25:37;6.13;;;4.43;;
57800;SDS011;43627;42.728;23.256;2023-09-19T02:28:06;7.35;;;4.93;;
57800;SDS011;43627;42.728;23.256;2023-09-19T02:30:35;6.63;;;4.35;;
57800;SDS011;43627;42.728;23.256;2023-09-19T02:33:03;5.82;;;4.25;;
57800;SDS011;43627;42.728;23.256;2023-09-19T02:35:30;7.95;;;5.15;;
57800;SDS011;43627;42.728;23.256;2023-09-19T02:38:02;8.52;;;4.60;;
57800;SDS011;43627;42.728;23.256;2023-09-19T02:40:33;9.50;;;4.47;;
57800;SDS011;43627;42.728;23.256;2023-09-19T02:43:02;6.95;;;4.57;;
57800;SDS011;43627;42.728;23.256;2023-09-19T02:45:29;8.35;;;5.32;;
57800;SDS011;43627;42.728;23.256;2023-09-19T02:47:57;6.97;;;4.65;;
57800;SDS011;43627;42.728;23.256;2023-09-19T02:50:24;6.85;;;5.00;;
57800;SDS011;43627;42.728;23.256;2023-09-19T02:52:51;6.45;;;4.47;;
57800;SDS011;43627;42.728;23.256;2023-09-19T02:55:18;7.50;;;5.05;;
57800;SDS011;43627;42.728;23.256;2023-09-19T02:57:47;9.02;;;5.57;;
57800;SDS011;43627;42.728;23.256;2023-09-19T03:00:15;6.90;;;5.05;;
57800;SDS011;43627;42.728;23.256;2023-09-19T03:02:43;9.98;;;6.32;;
57800;SDS011;43627;42.728;23.256;2023-09-19T03:05:11;8.27;;;5.90;;
57800;SDS011;43627;42.728;23.256;2023-09-19T03:07:38;11.90;;;5.10;;
57800;SDS011;43627;42.728;23.256;2023-09-19T03:10:05;9.68;;;5.22;;
57800;SDS011;43627;42.728;23.256;2023-09-19T03:12:33;7.93;;;4.90;;
57800;SDS011;43627;42.728;23.256;2023-09-19T03:15:01;10.80;;;5.13;;
57800;SDS011;43627;42.728;23.256;2023-09-19T03:17:30;10.05;;;5.95;;
57800;SDS011;43627;42.728;23.256;2023-09-19T03:19:57;9.75;;;6.15;;
57800;SDS011;43627;42.728;23.256;2023-09-19T03:22:24;7.47;;;5.50;;
57800;SDS011;43627;42.728;23.256;2023-09-19T03:24:53;9.75;;;5.20;;
57800;SDS011;43627;42.728;23.256;2023-09-19T03:27:20;12.35;;;5.32;;
57800;SDS011;43627;42.728;23.256;2023-09-19T03:29:47;9.95;;;5.93;;
57800;SDS011;43627;42.728;23.256;2023-09-19T03:32:13;10.07;;;5.55;;
57800;SDS011;43627;42.728;23.256;2023-09-19T03:34:40;11.05;;;5.72;;
57800;SDS011;43627;42.728;23.256;2023-09-19T03:37:09;10.07;;;6.07;;
57800;SDS011;43627;42.728;23.256;2023-09-19T03:39:36;9.70;;;5.90;;
57800;SDS011;43627;42.728;23.256;2023-09-19T03:42:03;8.82;;;5.65;;
57800;SDS011;43627;42.728;23.256;2023-09-19T03:44:30;9.05;;;6.00;;
57800;SDS011;43627;42.728;23.256;2023-09-19T03:46:57;9.68;;;6.38;;
57800;SDS011;43627;42.728;23.256;2023-09-19T03:49:24;8.13;;;5.88;;
57800;SDS011;43627;42.728;23.256;2023-09-19T03:51:51;8.68;;;5.88;;
57800;SDS011;43627;42.728;23.256;2023-09-19T03:54:22;9.47;;;6.10;;
57800;SDS011;43627;42.728;23.256;2023-09-19T03:56:49;8.63;;;6.68;;
57800;SDS011;43627;42.728;23.256;2023-09-19T03:59:16;15.23;;;6.28;;
57800;SDS011;43627;42.728;23.256;2023-09-19T04:01:44;11.05;;;7.00;;
57800;SDS011;43627;42.728;23.256;2023-09-19T04:04:11;9.45;;;6.35;;
57800;SDS011;43627;42.728;23.256;2023-09-19T04:06:39;11.20;;;6.63;;
57800;SDS011;43627;42.728;23.256;2023-09-19T04:09:06;14.93;;;6.70;;
57800;SDS011;43627;42.728;23.256;2023-09-19T04:11:33;8.93;;;6.47;;
57800;SDS011;43627;42.728;23.256;2023-09-19T04:14:02;10.95;;;6.55;;
57800;SDS011;43627;42.728;23.256;2023-09-19T04:16:30;11.20;;;6.88;;
57800;SDS011;43627;42.728;23.256;2023-09-19T04:18:57;11.15;;;6.30;;
57800;SDS011;43627;42.728;23.256;2023-09-19T04:21:24;12.73;;;7.38;;
57800;SDS011;43627;42.728;23.256;2023-09-19T04:23:50;13.50;;;6.88;;
57800;SDS011;43627;42.728;23.256;2023-09-19T04:26:17;11.25;;;6.88;;
57800;SDS011;43627;42.728;23.256;2023-09-19T04:28:44;11.02;;;6.82;;
57800;SDS011;43627;42.728;23.256;2023-09-19T04:31:12;9.68;;;6.88;;
57800;SDS011;43627;42.728;23.256;2023-09-19T04:33:40;10.48;;;6.63;;
57800;SDS011;43627;42.728;23.256;2023-09-19T04:36:07;20.02;;;6.70;;
57800;SDS011;43627;42.728;23.256;2023-09-19T04:38:54;11.90;;;7.05;;
57800;SDS011;43627;42.728;23.256;2023-09-19T04:41:21;11.05;;;6.25;;
57800;SDS011;43627;42.728;23.256;2023-09-19T04:43:48;13.95;;;6.35;;
57800;SDS011;43627;42.728;23.256;2023-09-19T04:46:17;11.40;;;6.43;;
57800;SDS011;43627;42.728;23.256;2023-09-19T04:48:44;14.48;;;6.55;;
57800;SDS011;43627;42.728;23.256;2023-09-19T04:51:10;9.18;;;5.93;;
57800;SDS011;43627;42.728;23.256;2023-09-19T04:53:37;11.13;;;6.00;;
57800;SDS011;43627;42.728;23.256;2023-09-19T04:56:04;10.02;;;6.60;;
57800;SDS011;43627;42.728;23.256;2023-09-19T04:58:33;10.50;;;5.53;;
57800;SDS011;43627;42.728;23.256;2023-09-19T05:01:00;14.70;;;6.20;;
57800;SDS011;43627;42.728;23.256;2023-09-19T05:03:30;9.43;;;6.32;;
57800;SDS011;43627;42.728;23.256;2023-09-19T05:05:57;9.70;;;6.32;;
57800;SDS011;43627;42.728;23.256;2023-09-19T05:08:24;12.88;;;6.35;;
57800;SDS011;43627;42.728;23.256;2023-09-19T05:10:51;9.95;;;5.95;;
57800;SDS011;43627;42.728;23.256;2023-09-19T05:13:18;13.23;;;6.25;;
57800;SDS011;43627;42.728;23.256;2023-09-19T05:15:45;8.15;;;4.68;;
57800;SDS011;43627;42.728;23.256;2023-09-19T05:18:11;14.32;;;5.63;;
57800;SDS011;43627;42.728;23.256;2023-09-19T05:20:38;8.05;;;4.85;;
57800;SDS011;43627;42.728;23.256;2023-09-19T05:23:06;8.35;;;4.45;;
57800;SDS011;43627;42.728;23.256;2023-09-19T05:25:39;6.13;;;4.38;;
57800;SDS011;43627;42.728;23.256;2023-09-19T05:28:06;8.25;;;4.32;;
57800;SDS011;43627;42.728;23.256;2023-09-19T05:30:35;7.18;;;4.55;;
57800;SDS011;43627;42.728;23.256;2023-09-19T05:33:03;6.82;;;4.32;;
57800;SDS011;43627;42.728;23.256;2023-09-19T05:35:31;6.28;;;4.50;;
57800;SDS011;43627;42.728;23.256;2023-09-19T05:37:59;7.85;;;4.38;;
57800;SDS011;43627;42.728;23.256;2023-09-19T05:40:26;8.85;;;5.00;;
57800;SDS011;43627;42.728;23.256;2023-09-19T05:42:53;12.13;;;5.20;;
57800;SDS011;43627;42.728;23.256;2023-09-19T05:45:20;12.63;;;5.75;;
57800;SDS011;43627;42.728;23.256;2023-09-19T05:47:51;8.05;;;5.22;;
57800;SDS011;43627;42.728;23.256;2023-09-19T05:50:22;8.05;;;5.43;;
57800;SDS011;43627;42.728;23.256;2023-09-19T05:52:51;10.55;;;5.10;;
57800;SDS011;43627;42.728;23.256;2023-09-19T05:55:19;10.98;;;5.43;;
57800;SDS011;43627;42.728;23.256;2023-09-19T05:57:50;8.18;;;5.55;;
57800;SDS011;43627;42.728;23.256;2023-09-19T06:00:18;8.30;;;5.68;;
57800;SDS011;43627;42.728;23.256;2023-09-19T06:02:50;9.70;;;5.78;;
57800;SDS011;43627;42.728;23.256;2023-09-19T06:05:20;8.23;;;5.37;;
57800;SDS011;43627;42.728;23.256;2023-09-19T06:07:47;10.07;;;5.00;;
57800;SDS011;43627;42.728;23.256;2023-09-19T06:10:14;6.60;;;4.72;;
57800;SDS011;43627;42.728;23.256;2023-09-19T06:12:41;9.82;;;5.45;;
57800;SDS011;43627;42.728;23.256;2023-09-19T06:15:12;10.43;;;5.38;;
57800;SDS011;43627;42.728;23.256;2023-09-19T06:17:43;10.57;;;5.22;;
57800;SDS011;43627;42.728;23.256;2023-09-19T06:20:13;9.77;;;5.05;;
57800;SDS011;43627;42.728;23.256;2023-09-19T06:22:41;9.05;;;5.18;;
57800;SDS011;43627;42.728;23.256;2023-09-19T06:25:12;9.00;;;4.28;;
57800;SDS011;43627;42.728;23.256;2023-09-19T06:27:46;9.52;;;5.65;;
57800;SDS011;43627;42.728;23.256;2023-09-19T06:30:14;10.90;;;4.50;;
57800;SDS011;43627;42.728;23.256;2023-09-19T06:32:41;7.80;;;4.28;;
57800;SDS011;43627;42.728;23.256;2023-09-19T06:35:11;9.50;;;4.82;;
57800;SDS011;43627;42.728;23.256;2023-09-19T06:37:39;6.13;;;4.03;;
57800;SDS011;43627;42.728;23.256;2023-09-19T06:42:35;8.27;;;4.15;;
57800;SDS011;43627;42.728;23.256;2023-09-19T06:45:04;5.35;;;3.72;;
57800;SDS011;43627;42.728;23.256;2023-09-19T06:47:32;6.13;;;3.65;;
57800;SDS011;43627;42.728;23.256;2023-09-19T06:50:02;7.00;;;4.57;;
57800;SDS011;43627;42.728;23.256;2023-09-19T06:52:29;5.47;;;2.97;;
57800;SDS011;43627;42.728;23.256;2023-09-19T06:54:55;4.80;;;2.85;;
57800;SDS011;43627;42.728;23.256;2023-09-19T06:57:23;5.97;;;3.17;;
57800;SDS011;43627;42.728;23.256;2023-09-19T06:59:50;3.40;;;2.80;;
57800;SDS011;43627;42.728;23.256;2023-09-19T07:02:17;5.35;;;3.40;;
57800;SDS011;43627;42.728;23.256;2023-09-19T07:04:45;4.97;;;3.22;;
57800;SDS011;43627;42.728;23.256;2023-09-19T07:07:13;6.18;;;3.45;;
57800;SDS011;43627;42.728;23.256;2023-09-19T07:09:40;4.65;;;2.58;;
57800;SDS011;43627;42.728;23.256;2023-09-19T07:12:08;12.65;;;3.03;;
57800;SDS011;43627;42.728;23.256;2023-09-19T07:14:35;4.75;;;3.00;;
57800;SDS011;43627;42.728;23.256;2023-09-19T07:17:02;3.83;;;2.78;;
57800;SDS011;43627;42.728;23.256;2023-09-19T07:19:30;4.00;;;2.58;;
57800;SDS011;43627;42.728;23.256;2023-09-19T07:21:57;6.88;;;3.40;;
57800;SDS011;43627;42.728;23.256;2023-09-19T07:24:28;8.70;;;3.28;;
57800;SDS011;43627;42.728;23.256;2023-09-19T07:26:56;7.10;;;3.05;;
57800;SDS011;43627;42.728;23.256;2023-09-19T07:29:23;4.10;;;2.67;;
57800;SDS011;43627;42.728;23.256;2023-09-19T07:31:50;6.90;;;3.28;;
57800;SDS011;43627;42.728;23.256;2023-09-19T07:34:17;7.05;;;3.47;;
57800;SDS011;43627;42.728;23.256;2023-09-19T07:36:44;3.67;;;3.00;;
57800;SDS011;43627;42.728;23.256;2023-09-19T07:39:13;5.47;;;2.92;;
57800;SDS011;43627;42.728;23.256;2023-09-19T07:41:48;4.68;;;2.95;;
57800;SDS011;43627;42.728;23.256;2023-09-19T07:44:16;6.25;;;3.17;;
57800;SDS011;43627;42.728;23.256;2023-09-19T07:46:43;7.10;;;3.28;;
57800;SDS011;43627;42.728;23.256;2023-09-19T07:49:10;10.55;;;3.40;;
57800;SDS011;43627;42.728;23.256;2023-09-19T07:51:38;7.18;;;3.55;;
57800;SDS011;43627;42.728;23.256;2023-09-19T07:54:05;7.55;;;3.25;;
57800;SDS011;43627;42.728;23.256;2023-09-19T07:56:32;8.45;;;3.67;;
57800;SDS011;43627;42.728;23.256;2023-09-19T07:58:58;6.20;;;3.60;;
57800;SDS011;43627;42.728;23.256;2023-09-19T08:01:26;5.35;;;3.38;;
57800;SDS011;43627;42.728;23.256;2023-09-19T08:03:54;9.73;;;3.20;;
57800;SDS011;43627;42.728;23.256;2023-09-19T08:06:20;5.88;;;3.30;;
57800;SDS011;43627;42.728;23.256;2023-09-19T08:08:50;15.52;;;3.42;;
57800;SDS011;43627;42.728;23.256;2023-09-19T08:11:20;7.35;;;3.78;;
57800;SDS011;43627;42.728;23.256;2023-09-19T08:13:47;6.78;;;3.55;;
57800;SDS011;43627;42.728;23.256;2023-09-19T08:16:15;6.13;;;3.38;;
57800;SDS011;43627;42.728;23.256;2023-09-19T08:18:47;5.55;;;3.40;;
57800;SDS011;43627;42.728;23.256;2023-09-19T08:21:24;5.03;;;3.00;;
57800;SDS011;43627;42.728;23.256;2023-09-19T08:23:52;6.15;;;3.05;;
57800;SDS011;43627;42.728;23.256;2023-09-19T08:26:19;10.02;;;4.05;;
57800;SDS011;43627;42.728;23.256;2023-09-19T08:28:46;9.30;;;4.15;;
57800;SDS011;43627;42.728;23.256;2023-09-19T08:31:14;9.25;;;3.40;;
57800;SDS011;43627;42.728;23.256;2023-09-19T08:33:41;6.88;;;3.65;;
57800;SDS011;43627;42.728;23.256;2023-09-19T08:36:09;5.90;;;3.50;;
57800;SDS011;43627;42.728;23.256;2023-09-19T08:38:36;7.65;;;3.50;;
57800;SDS011;43627;42.728;23.256;2023-09-19T08:41:06;9.05;;;3.50;;
57800;SDS011;43627;42.728;23.256;2023-09-19T08:43:34;5.78;;;3.30;;
57800;SDS011;43627;42.728;23.256;2023-09-19T08:48:31;7.55;;;3.60;;
57800;SDS011;43627;42.728;23.256;2023-09-19T08:56:39;8.50;;;3.22;;
57800;SDS011;43627;42.728;23.256;2023-09-19T08:59:08;6.45;;;3.45;;
57800;SDS011;43627;42.728;23.256;2023-09-19T09:01:36;7.47;;;3.47;;
57800;SDS011;43627;42.728;23.256;2023-09-19T09:04:03;4.95;;;3.30;;
57800;SDS011;43627;42.728;23.256;2023-09-19T09:06:35;5.93;;;3.13;;
57800;SDS011;43627;42.728;23.256;2023-09-19T09:09:02;5.20;;;4.00;;
57800;SDS011;43627;42.728;23.256;2023-09-19T09:11:30;11.05;;;3.50;;
57800;SDS011;43627;42.728;23.256;2023-09-19T09:13:59;4.40;;;3.13;;
57800;SDS011;43627;42.728;23.256;2023-09-19T09:16:26;6.57;;;3.63;;
57800;SDS011;43627;42.728;23.256;2023-09-19T09:18:56;7.97;;;4.07;;
57800;SDS011;43627;42.728;23.256;2023-09-19T09:21:23;6.80;;;3.83;;
57800;SDS011;43627;42.728;23.256;2023-09-19T09:23:51;5.32;;;3.78;;
57800;SDS011;43627;42.728;23.256;2023-09-19T09:29:05;5.72;;;3.60;;
57800;SDS011;43627;42.728;23.256;2023-09-19T09:31:32;8.00;;;3.97;;
57800;SDS011;43627;42.728;23.256;2023-09-19T09:33:59;8.35;;;3.58;;
57800;SDS011;43627;42.728;23.256;2023-09-19T09:36:36;11.02;;;3.95;;
57800;SDS011;43627;42.728;23.256;2023-09-19T09:39:04;7.78;;;4.07;;
57800;SDS011;43627;42.728;23.256;2023-09-19T09:41:42;5.43;;;3.40;;
57800;SDS011;43627;42.728;23.256;2023-09-19T09:44:13;4.90;;;3.45;;
57800;SDS011;43627;42.728;23.256;2023-09-19T09:46:47;6.72;;;3.90;;
57800;SDS011;43627;42.728;23.256;2023-09-19T09:49:25;5.88;;;3.53;;
57800;SDS011;43627;42.728;23.256;2023-09-19T09:52:01;9.20;;;3.30;;
57800;SDS011;43627;42.728;23.256;2023-09-19T09:54:37;7.50;;;3.50;;
57800;SDS011;43627;42.728;23.256;2023-09-19T09:57:08;5.18;;;3.33;;
57800;SDS011;43627;42.728;23.256;2023-09-19T09:59:54;5.40;;;3.30;;
57800;SDS011;43627;42.728;23.256;2023-09-19T10:02:35;9.95;;;3.42;;
57800;SDS011;43627;42.728;23.256;2023-09-19T10:05:12;9.32;;;3.97;;
57800;SDS011;43627;42.728;23.256;2023-09-19T10:07:47;6.25;;;3.17;;
57800;SDS011;43627;42.728;23.256;2023-09-19T10:13:29;5.18;;;3.63;;
57800;SDS011;43627;42.728;23.256;2023-09-19T10:15:57;9.55;;;3.50;;
57800;SDS011;43627;42.728;23.256;2023-09-19T10:18:29;6.70;;;3.40;;
57800;SDS011;43627;42.728;23.256;2023-09-19T10:20:59;6.28;;;4.10;;
57800;SDS011;43627;42.728;23.256;2023-09-19T10:23:28;7.25;;;4.43;;
57800;SDS011;43627;42.728;23.256;2023-09-19T10:26:00;6.25;;;3.30;;
57800;SDS011;43627;42.728;23.256;2023-09-19T10:28:28;6.00;;;3.95;;
57800;SDS011;43627;42.728;23.256;2023-09-19T10:30:57;10.55;;;3.58;;
57800;SDS011;43627;42.728;23.256;2023-09-19T10:33:25;7.95;;;3.58;;
57800;SDS011;43627;42.728;23.256;2023-09-19T10:35:53;7.88;;;3.33;;
57800;SDS011;43627;42.728;23.256;2023-09-19T10:38:26;13.07;;;4.95;;
57800;SDS011;43627;42.728;23.256;2023-09-19T10:40:56;7.57;;;3.63;;
57800;SDS011;43627;42.728;23.256;2023-09-19T10:43:31;5.28;;;3.78;;
57800;SDS011;43627;42.728;23.256;2023-09-19T10:46:02;5.03;;;3.22;;
57800;SDS011;43627;42.728;23.256;2023-09-19T10:48:34;7.95;;;3.55;;
57800;SDS011;43627;42.728;23.256;2023-09-19T10:51:12;4.32;;;3.30;;
57800;SDS011;43627;42.728;23.256;2023-09-19T10:53:45;7.13;;;3.95;;
57800;SDS011;43627;42.728;23.256;2023-09-19T10:56:27;5.03;;;3.88;;
57800;SDS011;43627;42.728;23.256;2023-09-19T10:59:09;4.78;;;3.03;;
57800;SDS011;43627;42.728;23.256;2023-09-19T11:01:45;4.07;;;2.95;;
57800;SDS011;43627;42.728;23.256;2023-09-19T11:04:24;5.22;;;3.78;;
57800;SDS011;43627;42.728;23.256;2023-09-19T11:09:51;4.88;;;3.40;;
57800;SDS011;43627;42.728;23.256;2023-09-19T11:13:23;5.80;;;4.15;;
57800;SDS011;43627;42.728;23.256;2023-09-19T11:26:40;4.70;;;3.40;;
57800;SDS011;43627;42.728;23.256;2023-09-19T11:29:30;7.03;;;3.42;;
57800;SDS011;43627;42.728;23.256;2023-09-19T11:31:57;5.15;;;3.17;;
57800;SDS011;43627;42.728;23.256;2023-09-19T11:37:02;6.43;;;3.42;;
57800;SDS011;43627;42.728;23.256;2023-09-19T11:40:05;5.10;;;3.60;;
57800;SDS011;43627;42.728;23.256;2023-09-19T11:42:46;6.72;;;3.58;;
57800;SDS011;43627;42.728;23.256;2023-09-19T11:48:23;9.27;;;3.33;;
57800;SDS011;43627;42.728;23.256;2023-09-19T11:50:54;4.65;;;3.20;;
57800;SDS011;43627;42.728;23.256;2023-09-19T11:53:21;5.43;;;3.17;;
57800;SDS011;43627;42.728;23.256;2023-09-19T11:55:49;5.32;;;3.10;;
57800;SDS011;43627;42.728;23.256;2023-09-19T11:58:17;5.63;;;3.50;;
57800;SDS011;43627;42.728;23.256;2023-09-19T12:00:46;7.50;;;4.10;;
57800;SDS011;43627;42.728;23.256;2023-09-19T12:03:21;6.57;;;3.35;;
57800;SDS011;43627;42.728;23.256;2023-09-19T12:05:48;4.53;;;3.35;;
57800;SDS011;43627;42.728;23.256;2023-09-19T12:08:14;3.67;;;2.78;;
57800;SDS011;43627;42.728;23.256;2023-09-19T12:10:50;4.38;;;3.05;;
57800;SDS011;43627;42.728;23.256;2023-09-19T12:13:22;4.25;;;3.55;;
57800;SDS011;43627;42.728;23.256;2023-09-19T12:15:49;5.88;;;3.55;;
57800;SDS011;43627;42.728;23.256;2023-09-19T12:18:28;7.05;;;3.70;;
57800;SDS011;43627;42.728;23.256;2023-09-19T12:20:56;3.78;;;3.00;;
57800;SDS011;43627;42.728;23.256;2023-09-19T12:23:29;5.95;;;3.25;;
57800;SDS011;43627;42.728;23.256;2023-09-19T12:25:56;4.72;;;3.22;;
57800;SDS011;43627;42.728;23.256;2023-09-19T12:28:26;3.78;;;2.90;;
57800;SDS011;43627;42.728;23.256;2023-09-19T12:30:55;6.32;;;3.70;;
57800;SDS011;43627;42.728;23.256;2023-09-19T12:33:21;4.72;;;3.08;;
57800;SDS011;43627;42.728;23.256;2023-09-19T12:35:52;5.85;;;3.67;;
57800;SDS011;43627;42.728;23.256;2023-09-19T12:38:28;6.40;;;3.35;;
57800;SDS011;43627;42.728;23.256;2023-09-19T12:40:55;3.83;;;2.95;;
57800;SDS011;43627;42.728;23.256;2023-09-19T12:43:25;6.03;;;3.17;;
57800;SDS011;43627;42.728;23.256;2023-09-19T12:45:53;6.88;;;3.55;;
57800;SDS011;43627;42.728;23.256;2023-09-19T12:48:24;7.22;;;3.63;;
57800;SDS011;43627;42.728;23.256;2023-09-19T12:53:44;4.05;;;3.47;;
57800;SDS011;43627;42.728;23.256;2023-09-19T12:56:16;5.93;;;3.50;;
57800;SDS011;43627;42.728;23.256;2023-09-19T12:58:51;7.93;;;3.20;;
57800;SDS011;43627;42.728;23.256;2023-09-19T13:01:23;6.35;;;3.30;;
57800;SDS011;43627;42.728;23.256;2023-09-19T13:04:16;5.38;;;3.63;;
57800;SDS011;43627;42.728;23.256;2023-09-19T13:06:52;10.00;;;4.00;;
57800;SDS011;43627;42.728;23.256;2023-09-19T13:09:20;7.43;;;3.50;;
57800;SDS011;43627;42.728;23.256;2023-09-19T13:11:48;5.32;;;3.40;;
57800;SDS011;43627;42.728;23.256;2023-09-19T13:14:23;8.15;;;3.65;;
57800;SDS011;43627;42.728;23.256;2023-09-19T13:17:04;3.78;;;3.03;;
57800;SDS011;43627;42.728;23.256;2023-09-19T13:19:52;5.43;;;2.95;;
57800;SDS011;43627;42.728;23.256;2023-09-19T13:22:40;5.47;;;3.45;;
57800;SDS011;43627;42.728;23.256;2023-09-19T13:25:10;5.38;;;3.20;;
57800;SDS011;43627;42.728;23.256;2023-09-19T13:27:42;5.15;;;3.22;;
57800;SDS011;43627;42.728;23.256;2023-09-19T13:30:11;4.30;;;3.25;;
57800;SDS011;43627;42.728;23.256;2023-09-19T13:32:39;6.15;;;3.42;;
57800;SDS011;43627;42.728;23.256;2023-09-19T13:35:07;5.25;;;3.20;;
57800;SDS011;43627;42.728;23.256;2023-09-19T13:37:38;4.95;;;3.13;;
57800;SDS011;43627;42.728;23.256;2023-09-19T13:40:09;7.10;;;3.60;;
57800;SDS011;43627;42.728;23.256;2023-09-19T13:42:38;7.53;;;3.35;;
57800;SDS011;43627;42.728;23.256;2023-09-19T13:45:06;5.18;;;3.33;;
57800;SDS011;43627;42.728;23.256;2023-09-19T13:47:33;4.32;;;3.05;;
57800;SDS011;43627;42.728;23.256;2023-09-19T13:50:02;6.07;;;3.33;;
57800;SDS011;43627;42.728;23.256;2023-09-19T13:52:31;6.28;;;3.67;;
57800;SDS011;43627;42.728;23.256;2023-09-19T13:54:58;4.57;;;3.50;;
57800;SDS011;43627;42.728;23.256;2023-09-19T13:57:26;5.80;;;3.13;;
57800;SDS011;43627;42.728;23.256;2023-09-19T13:59:53;5.57;;;3.03;;
57800;SDS011;43627;42.728;23.256;2023-09-19T14:02:21;5.95;;;3.60;;
57800;SDS011;43627;42.728;23.256;2023-09-19T14:04:52;6.00;;;3.60;;
57800;SDS011;43627;42.728;23.256;2023-09-19T14:07:19;5.65;;;3.55;;
57800;SDS011;43627;42.728;23.256;2023-09-19T14:09:46;4.60;;;3.22;;
57800;SDS011;43627;42.728;23.256;2023-09-19T14:12:14;4.25;;;3.15;;
57800;SDS011;43627;42.728;23.256;2023-09-19T14:14:41;6.80;;;3.72;;
57800;SDS011;43627;42.728;23.256;2023-09-19T14:17:08;6.13;;;3.85;;
57800;SDS011;43627;42.728;23.256;2023-09-19T14:19:36;6.78;;;4.10;;
57800;SDS011;43627;42.728;23.256;2023-09-19T14:22:03;8.60;;;2.95;;
57800;SDS011;43627;42.728;23.256;2023-09-19T14:24:34;4.55;;;3.25;;
57800;SDS011;43627;42.728;23.256;2023-09-19T14:27:01;5.55;;;3.45;;
57800;SDS011;43627;42.728;23.256;2023-09-19T14:29:30;5.18;;;3.78;;
57800;SDS011;43627;42.728;23.256;2023-09-19T14:31:58;7.13;;;3.58;;
57800;SDS011;43627;42.728;23.256;2023-09-19T14:34:25;7.82;;;3.28;;
57800;SDS011;43627;42.728;23.256;2023-09-19T14:36:52;7.88;;;3.58;;
57800;SDS011;43627;42.728;23.256;2023-09-19T14:39:20;6.18;;;3.42;;
57800;SDS011;43627;42.728;23.256;2023-09-19T14:41:47;9.63;;;4.20;;
57800;SDS011;43627;42.728;23.256;2023-09-19T14:44:14;10.50;;;4.47;;
57800;SDS011;43627;42.728;23.256;2023-09-19T14:46:42;5.82;;;3.80;;
57800;SDS011;43627;42.728;23.256;2023-09-19T14:49:11;6.50;;;3.22;;
57800;SDS011;43627;42.728;23.256;2023-09-19T14:51:38;6.63;;;3.55;;
57800;SDS011;43627;42.728;23.256;2023-09-19T14:54:10;4.63;;;3.40;;
57800;SDS011;43627;42.728;23.256;2023-09-19T14:56:37;5.00;;;3.70;;
57800;SDS011;43627;42.728;23.256;2023-09-19T14:59:04;4.38;;;3.60;;
57800;SDS011;43627;42.728;23.256;2023-09-19T15:01:34;5.07;;;4.15;;
57800;SDS011;43627;42.728;23.256;2023-09-19T15:04:01;4.80;;;3.55;;
57800;SDS011;43627;42.728;23.256;2023-09-19T15:06:28;5.70;;;3.53;;
57800;SDS011;43627;42.728;23.256;2023-09-19T15:08:55;4.93;;;3.40;;
57800;SDS011;43627;42.728;23.256;2023-09-19T15:11:23;8.35;;;3.47;;
57800;SDS011;43627;42.728;23.256;2023-09-19T15:13:50;5.53;;;2.92;;
57800;SDS011;43627;42.728;23.256;2023-09-19T15:16:18;8.15;;;3.33;;
57800;SDS011;43627;42.728;23.256;2023-09-19T15:18:46;5.90;;;3.85;;
57800;SDS011;43627;42.728;23.256;2023-09-19T15:21:18;4.50;;;3.08;;
57800;SDS011;43627;42.728;23.256;2023-09-19T15:23:45;5.97;;;3.35;;
57800;SDS011;43627;42.728;23.256;2023-09-19T15:26:13;5.13;;;3.60;;
57800;SDS011;43627;42.728;23.256;2023-09-19T15:28:47;6.00;;;4.05;;
57800;SDS011;43627;42.728;23.256;2023-09-19T15:31:15;8.27;;;3.55;;
57800;SDS011;43627;42.728;23.256;2023-09-19T15:33:41;5.88;;;3.58;;
57800;SDS011;43627;42.728;23.256;2023-09-19T15:41:30;6.75;;;3.75;;
57800;SDS011;43627;42.728;23.256;2023-09-19T15:44:00;7.25;;;3.80;;
57800;SDS011;43627;42.728;23.256;2023-09-19T15:46:33;8.00;;;4.33;;
57800;SDS011;43627;42.728;23.256;2023-09-19T15:49:01;8.07;;;3.70;;
57800;SDS011;43627;42.728;23.256;2023-09-19T15:51:28;7.90;;;3.80;;